Bedford, Massachusetts
Current Conditions -  °F | °C
As of 1:56 AM on Sunday 23 Nov 2014 (Local Time) from KBED Reporting Station
Broken Clouds Broken Clouds  
Wind Chill: 38°   Ceiling: 11000
Heat Index: 42°   Visibility: 10mi
Dew Point: 22°   Wind: 7mph
Humidity: 45%   Direction: 230°SW
Pressure: 30.06"   Gusts: NA
Location:  42.49°N, 71.28°W
Report Text: KBED 230656Z AUTO 23006KT 10SM BKN110 06/M06 A3006 RMK AO2 SLP192 T00561056 TSNO
Loading
Personal Weather Stations






























Interactive Weather Map New forecast layout! Learn more

10-Day Weather Forecast

Advertisements
Track Severe Weather on mobile